Time;durP1;ratioP1;P1;durP2;ratioP2;P2;SDS_P1;SDS_P2;PMS_P1;PMS_P2;Temp;Humidity;BMP_temperature;BMP_pressure;BME280_temperature;BME280_humidity;BME280_pressure;Samples;Min_cycle;Max_cycle;Signal;HPM_P1;HPM_P2
2023/01/16 00:01:12;;;;;;;10.00;4.15;;;;;;;1.07;49.36;91386.41;5002693;28;20034;-78
2023/01/16 00:03:37;;;;;;;9.43;4.78;;;;;;;1.01;50.62;91383.03;5002251;28;20030;-79
2023/01/16 00:06:03;;;;;;;14.75;5.80;;;;;;;1.00;51.43;91379.69;4996254;28;20385;-78
2023/01/16 00:08:28;;;;;;;9.38;4.20;;;;;;;0.96;52.18;91376.06;4992344;28;20069;-78
2023/01/16 00:10:54;;;;;;;5.72;2.50;;;;;;;0.90;52.89;91368.56;4989320;28;20081;-77
2023/01/16 00:13:19;;;;;;;4.85;2.10;;;;;;;0.83;53.16;91371.38;4990005;28;20044;-77
2023/01/16 00:15:48;;;;;;;2.15;1.30;;;;;;;0.75;53.70;91369.31;4970894;28;20039;-77
2023/01/16 00:18:13;;;;;;;3.85;1.60;;;;;;;0.67;53.95;91362.06;4985304;28;20038;-77
2023/01/16 00:20:39;;;;;;;1.88;1.10;;;;;;;0.58;53.43;91357.41;4991103;28;20031;-76
2023/01/16 00:23:05;;;;;;;3.33;1.70;;;;;;;0.53;53.84;91349.66;4991004;28;20045;-77
2023/01/16 00:25:31;;;;;;;4.60;1.77;;;;;;;0.48;54.70;91344.50;4991196;28;20156;-77
2023/01/16 00:27:56;;;;;;;2.53;1.38;;;;;;;0.42;55.45;91348.06;4989789;28;20030;-78
2023/01/16 00:30:22;;;;;;;2.58;1.55;;;;;;;0.36;55.84;91351.66;4989883;28;20503;-77
2023/01/16 00:32:48;;;;;;;6.50;2.88;;;;;;;0.29;56.08;91345.97;4991273;28;20424;-77
2023/01/16 00:35:13;;;;;;;8.68;2.70;;;;;;;0.26;56.76;91347.25;4991272;28;20042;-77
2023/01/16 00:37:39;;;;;;;3.42;1.63;;;;;;;0.23;56.83;91349.56;4990317;28;20058;-77
2023/01/16 00:40:05;;;;;;;7.93;2.85;;;;;;;0.23;56.24;91352.13;4991335;28;20035;-77
2023/01/16 00:42:31;;;;;;;8.82;2.95;;;;;;;0.18;56.69;91330.50;4995062;28;20056;-76
2023/01/16 00:44:56;;;;;;;6.68;2.15;;;;;;;0.14;56.99;91338.97;4993669;28;20046;-77
2023/01/16 00:47:22;;;;;;;3.97;1.50;;;;;;;0.17;56.77;91338.44;4993211;28;20132;-77
2023/01/16 00:49:48;;;;;;;7.28;2.40;;;;;;;0.21;58.03;91339.50;4993064;28;20050;-77
2023/01/16 00:52:13;;;;;;;6.82;2.13;;;;;;;0.15;58.18;91332.78;4994085;28;20053;-77
2023/01/16 00:54:39;;;;;;;11.07;3.42;;;;;;;0.09;57.29;91326.84;4995111;28;20033;-78
2023/01/16 00:57:05;;;;;;;15.50;4.18;;;;;;;0.04;56.97;91326.78;4993021;28;20496;-77
2023/01/16 00:59:30;;;;;;;10.05;2.95;;;;;;;0.04;56.88;91324.22;4991840;28;20045;-77
2023/01/16 01:01:56;;;;;;;4.75;1.70;;;;;;;0.03;57.26;91317.53;4976482;28;20482;-77
2023/01/16 01:04:21;;;;;;;3.90;1.58;;;;;;;0.02;57.94;91315.97;4979907;28;20037;-77
2023/01/16 01:06:47;;;;;;;3.00;1.45;;;;;;;-0.01;57.40;91311.34;4977723;28;20041;-77
2023/01/16 01:09:12;;;;;;;3.70;1.70;;;;;;;-0.04;59.44;91310.03;4989488;28;20038;-77
2023/01/16 01:11:38;;;;;;;3.47;1.60;;;;;;;-0.03;61.41;91303.88;4978056;28;20045;-77
2023/01/16 01:14:04;;;;;;;2.67;1.40;;;;;;;-0.02;62.04;91296.94;4994703;28;20059;-77
2023/01/16 01:16:30;;;;;;;3.15;1.50;;;;;;;-0.05;62.40;91295.63;4994370;28;20046;-77
2023/01/16 01:18:56;;;;;;;2.05;1.30;;;;;;;-0.04;62.65;91296.41;4994553;28;20511;-77
2023/01/16 01:21:21;;;;;;;2.28;1.27;;;;;;;-0.04;62.62;91293.84;4994553;28;20069;-77
2023/01/16 01:23:47;;;;;;;2.97;1.40;;;;;;;-0.01;62.10;91286.38;4993060;28;20019;-77
2023/01/16 01:26:16;;;;;;;2.45;1.27;;;;;;;0.00;62.29;91287.19;4994378;28;20587;-77
2023/01/16 01:28:42;;;;;;;2.20;1.40;;;;;;;0.00;62.94;91282.03;4992459;28;20131;-77
2023/01/16 01:31:12;;;;;;;2.15;1.30;;;;;;;-0.02;62.66;91284.06;4992202;28;20045;-77
2023/01/16 01:33:38;;;;;;;1.52;1.05;;;;;;;-0.03;62.66;91279.94;4993103;28;20558;-77
2023/01/16 01:36:05;;;;;;;2.35;1.30;;;;;;;-0.05;62.76;91275.03;4991455;28;20022;-77
2023/01/16 01:38:31;;;;;;;2.95;1.45;;;;;;;-0.07;63.47;91276.31;4992131;28;20045;-77
2023/01/16 01:40:56;;;;;;;2.42;1.40;;;;;;;-0.13;63.00;91277.34;4994126;28;20412;-77
2023/01/16 01:43:39;;;;;;;3.28;1.30;;;;;;;-0.15;62.95;91285.28;4992940;28;20062;-77
2023/01/16 01:46:05;;;;;;;2.28;1.40;;;;;;;-0.19;61.98;91273.94;4992245;28;20092;-78
2023/01/16 01:48:40;;;;;;;4.00;1.25;;;;;;;-0.24;61.25;91277.28;4972470;28;20471;-77
2023/01/16 01:51:13;;;;;;;1.77;1.20;;;;;;;-0.29;61.97;91269.53;4974204;28;20030;-77
2023/01/16 01:53:50;;;;;;;1.58;1.27;;;;;;;-0.32;61.83;91269.25;4973122;28;20035;-77
2023/01/16 01:56:24;;;;;;;2.92;1.20;;;;;;;-0.37;61.42;91264.84;4976997;28;20109;-78
2023/01/16 01:58:55;;;;;;;2.97;1.30;;;;;;;-0.42;61.83;91260.47;4988375;28;20429;-77
2023/01/16 02:01:22;;;;;;;2.40;1.40;;;;;;;-0.45;62.28;91255.03;4992026;28;20086;-77
2023/01/16 02:03:57;;;;;;;2.05;1.38;;;;;;;-0.47;63.29;91257.09;4991293;28;20125;-77
2023/01/16 02:06:30;;;;;;;2.30;1.35;;;;;;;-0.53;63.56;91243.44;4992197;28;20561;-77
2023/01/16 02:08:56;;;;;;;1.38;1.00;;;;;;;-0.53;63.04;91242.66;4992078;28;20494;-77
2023/01/16 02:11:36;;;;;;;2.45;1.45;;;;;;;-0.56;63.16;91243.13;4992802;28;20121;-77
2023/01/16 02:14:07;;;;;;;2.03;1.20;;;;;;;-0.68;63.21;91240.75;4993151;28;20038;-77
2023/01/16 02:19:31;;;;;;;2.22;1.40;;;;;;;-0.75;62.93;91219.66;4991262;28;20481;-77
2023/01/16 02:22:14;;;;;;;5.00;2.60;;;;;;;-0.53;71.73;91210.00;4993087;28;20035;-77
2023/01/16 02:24:58;;;;;;;7.63;3.63;;;;;;;-0.47;77.26;91205.69;4993247;28;20676;-77
2023/01/16 02:27:39;;;;;;;7.68;4.43;;;;;;;-0.47;84.64;91210.81;4992964;28;20049;-77
2023/01/16 02:30:05;;;;;;;8.73;4.40;;;;;;;-0.57;84.79;91211.53;4992318;28;20061;-77
2023/01/16 02:32:52;;;;;;;7.95;4.22;;;;;;;-0.69;83.89;91192.97;4992909;28;20528;-77
2023/01/16 02:35:26;;;;;;;7.78;4.57;;;;;;;-0.73;88.77;91197.81;4992984;28;20031;-77
2023/01/16 02:37:59;;;;;;;7.43;4.45;;;;;;;-0.82;88.50;91194.19;4992684;28;20038;-77
2023/01/16 02:40:44;;;;;;;;;;;;;;;-0.93;88.00;91197.69;4992664;28;20488;-77
2023/01/16 02:43:28;;;;;;;9.25;3.75;;;;;;;-1.09;86.62;91189.88;4993058;28;19924;-77
2023/01/16 02:46:04;;;;;;;7.70;3.65;;;;;;;-1.16;86.94;91189.34;4992812;28;20042;-77
2023/01/16 02:49:07;;;;;;;7.88;3.60;;;;;;;-1.24;87.16;91183.88;4991141;28;20061;-77
2023/01/16 02:51:36;;;;;;;;;;;;;;;-1.32;85.50;91179.97;4992998;28;20563;-77
2023/01/16 02:54:14;;;;;;;6.43;3.25;;;;;;;-1.38;85.29;91180.94;4991885;28;19917;-77
2023/01/16 02:56:57;;;;;;;5.25;3.00;;;;;;;-1.41;85.19;91174.53;4990521;28;20034;-77
2023/01/16 02:59:27;;;;;;;7.45;2.90;;;;;;;-1.43;86.24;91178.34;4972078;28;20038;-77
2023/01/16 03:01:56;;;;;;;6.43;3.28;;;;;;;-1.45;85.56;91170.88;4972864;28;20039;-76
2023/01/16 03:04:43;;;;;;;6.50;3.50;;;;;;;-1.45;88.14;91160.63;4972881;28;20039;-76
2023/01/16 03:07:42;;;;;;;5.82;3.40;;;;;;;-1.50;87.29;91163.94;4974099;28;20382;-77
2023/01/16 03:10:19;;;;;;;4.55;2.50;;;;;;;-1.51;84.47;91152.13;4992280;28;20042;-76
2023/01/16 03:13:04;;;;;;;8.50;3.45;;;;;;;-1.53;84.01;91156.72;4990856;28;20484;-76
2023/01/16 03:15:52;;;;;;;6.43;2.60;;;;;;;-1.56;82.91;91162.31;4985856;28;20027;-78
2023/01/16 03:18:41;;;;;;;5.65;2.40;;;;;;;-1.59;81.74;91157.69;4978873;28;20038;-77
2023/01/16 03:21:51;;;;;;;4.28;1.80;;;;;;;-1.63;81.44;91150.72;4991416;28;20511;-78
2023/01/16 03:24:35;;;;;;;3.55;1.85;;;;;;;-1.63;80.75;91154.06;4992209;28;20575;-78
2023/01/16 03:27:36;;;;;;;2.97;1.60;;;;;;;-1.61;81.21;91152.03;4991858;28;20066;-78
2023/01/16 03:30:02;;;;;;;3.22;1.75;;;;;;;-1.64;82.29;91149.97;4997410;28;20509;-78
2023/01/16 03:32:37;;;;;;;3.20;1.77;;;;;;;-1.69;81.77;91144.75;4991936;28;20112;-78
2023/01/16 03:35:11;;;;;;;3.33;1.70;;;;;;;-1.74;82.68;91142.94;4990196;28;20031;-78
2023/01/16 03:38:08;;;;;;;3.08;1.80;;;;;;;-1.75;82.65;91140.63;4990301;28;20088;-78
2023/01/16 03:40:39;;;;;;;3.45;1.70;;;;;;;-1.79;83.04;91131.88;4991857;28;20046;-78
2023/01/16 03:43:17;;;;;;;4.28;2.00;;;;;;;-1.81;84.02;91132.09;4986046;28;20042;-78
2023/01/16 03:45:58;;;;;;;3.25;1.95;;;;;;;-1.81;85.93;91132.09;4990485;28;20493;-78
2023/01/16 03:48:42;;;;;;;3.10;1.75;;;;;;;-1.84;85.44;91136.97;4990965;28;20101;-76
2023/01/16 03:51:11;;;;;;;3.00;1.65;;;;;;;-1.91;85.50;91122.53;4970909;28;20038;-76
2023/01/16 03:53:47;;;;;;;4.75;1.80;;;;;;;-1.93;85.97;91127.13;4980928;28;20068;-77
2023/01/16 03:56:46;;;;;;;3.90;1.92;;;;;;;-1.95;85.23;91123.28;4990202;28;20042;-77
2023/01/16 03:59:13;;;;;;;4.47;1.70;;;;;;;-1.98;85.24;91116.03;4987195;28;20188;-76
2023/01/16 04:01:47;;;;;;;3.42;1.60;;;;;;;-2.00;85.04;91116.31;4990696;28;20066;-77
2023/01/16 04:04:24;;;;;;;5.68;1.58;;;;;;;-2.07;85.07;91102.91;4991038;28;20179;-77
2023/01/16 04:06:59;;;;;;;5.03;1.70;;;;;;;-2.02;86.00;91104.75;4990018;28;20447;-77
2023/01/16 04:09:38;;;;;;;4.97;2.17;;;;;;;-2.03;85.98;91103.94;4989040;28;20527;-76
2023/01/16 04:12:06;;;;;;;4.60;2.05;;;;;;;-2.07;86.82;91102.91;4990729;28;20045;-77
2023/01/16 04:14:34;;;;;;;91.25;10.90;;;;;;;-2.10;100.00;91106.72;4991114;28;20053;-77
2023/01/16 04:17:01;;;;;;;16.45;7.95;;;;;;;-2.10;100.00;91095.69;4989409;28;20424;-76
2023/01/16 04:19:29;;;;;;;11.20;5.97;;;;;;;-2.16;100.00;91088.97;4989546;28;20034;-76
2023/01/16 04:21:55;;;;;;;17.10;8.32;;;;;;;-2.08;100.00;91085.97;4991215;28;20424;-77
2023/01/16 04:24:21;;;;;;;17.58;9.80;;;;;;;-2.20;100.00;91082.78;4991129;28;20034;-78
2023/01/16 04:26:46;;;;;;;32.53;13.43;;;;;;;-2.29;100.00;91074.00;4991336;28;20058;-75
2023/01/16 04:29:12;;;;;;;18.35;9.88;;;;;;;-2.37;100.00;91072.63;4972610;28;20034;-78
2023/01/16 04:31:37;;;;;;;15.82;7.50;;;;;;;-2.46;100.00;91066.38;4990748;28;20039;-76
2023/01/16 04:34:03;;;;;;;8.75;4.78;;;;;;;-2.51;100.00;91067.13;4989603;28;20046;-78
2023/01/16 04:36:30;;;;;;;6.30;3.15;;;;;;;-2.56;100.00;91059.38;4989571;28;20034;-76
2023/01/16 04:38:56;;;;;;;6.05;2.50;;;;;;;-2.58;100.00;91056.28;4989909;28;20080;-78
2023/01/16 04:41:37;;;;;;;6.47;2.30;;;;;;;-2.57;100.00;91052.69;4988232;28;20046;-77
2023/01/16 04:44:05;;;;;;;5.22;2.20;;;;;;;-2.57;100.00;91055.25;4990717;28;20042;-78
2023/01/16 04:46:31;;;;;;;46.63;9.60;;;;;;;-2.42;100.00;91055.41;4989946;28;20501;-77
2023/01/16 04:48:57;;;;;;;154.48;12.18;;;;;;;-2.43;100.00;91055.66;4988995;28;20058;-78
2023/01/16 04:51:23;;;;;;;119.38;12.77;;;;;;;-2.44;100.00;91052.31;4990746;28;20180;-78
2023/01/16 04:53:49;;;;;;;120.07;11.82;;;;;;;-2.46;100.00;91038.97;4983464;28;20050;-78
2023/01/16 04:56:14;;;;;;;12.88;6.85;;;;;;;-2.47;100.00;91036.66;4971791;28;20031;-78
2023/01/16 04:58:40;;;;;;;9.65;3.63;;;;;;;-2.50;100.00;91032.78;4974312;28;20689;-78
2023/01/16 05:01:05;;;;;;;4.70;2.72;;;;;;;-2.54;100.00;91032.50;4991314;28;20496;-78
2023/01/16 05:03:31;;;;;;;4.63;2.63;;;;;;;-2.55;100.00;91030.16;4990618;28;20143;-78
2023/01/16 05:05:57;;;;;;;3.97;2.20;;;;;;;-2.57;100.00;91024.50;4991410;28;20050;-78
2023/01/16 05:08:25;;;;;;;6.95;2.40;;;;;;;-2.56;100.00;91026.06;4991070;28;20053;-78
2023/01/16 05:10:51;;;;;;;4.57;2.30;;;;;;;-2.57;100.00;91011.69;4989439;28;20065;-78
2023/01/16 05:13:17;;;;;;;4.97;2.40;;;;;;;-2.56;100.00;91011.47;4990069;28;20042;-78
2023/01/16 05:15:44;;;;;;;4.20;2.03;;;;;;;-2.54;100.00;91011.22;4987923;28;20453;-77
2023/01/16 05:18:11;;;;;;;4.40;2.35;;;;;;;-2.57;100.00;91006.56;4990338;28;20480;-77
2023/01/16 05:20:38;;;;;;;4.35;2.30;;;;;;;-2.59;100.00;91000.91;4990631;28;20026;-77
2023/01/16 05:23:03;;;;;;;5.18;2.22;;;;;;;-2.61;100.00;91002.94;4992981;28;20034;-77
2023/01/16 05:25:29;;;;;;;6.40;2.30;;;;;;;-2.66;100.00;90998.56;4992238;28;20046;-77
2023/01/16 05:27:55;;;;;;;3.53;1.95;;;;;;;-2.63;100.00;90992.19;4992037;28;20046;-77
2023/01/16 05:30:21;;;;;;;4.90;2.22;;;;;;;-2.65;100.00;90989.09;4990066;28;20352;-78
2023/01/16 05:32:46;;;;;;;3.88;2.00;;;;;;;-2.59;100.00;91000.91;4992341;28;20053;-77
2023/01/16 05:35:13;;;;;;;6.82;1.92;;;;;;;-2.57;100.00;91004.00;4992651;28;20038;-77
2023/01/16 05:37:38;;;;;;;4.63;2.05;;;;;;;-2.53;100.00;90997.41;4994373;28;20050;-78
2023/01/16 05:40:04;;;;;;;3.45;1.80;;;;;;;-2.48;100.00;90987.19;4994396;28;20035;-79
2023/01/16 05:42:30;;;;;;;5.20;2.13;;;;;;;-2.44;100.00;90985.69;4992172;28;20173;-79
2023/01/16 05:44:56;;;;;;;3.92;1.88;;;;;;;-2.44;99.78;90979.78;4976047;28;20086;-80
2023/01/16 05:47:21;;;;;;;3.63;1.90;;;;;;;-2.40;99.32;90973.94;4990284;28;20034;-78
2023/01/16 05:49:47;;;;;;;4.50;2.08;;;;;;;-2.35;98.35;90973.19;4991568;28;20061;-80
2023/01/16 05:52:14;;;;;;;3.22;1.90;;;;;;;-2.34;97.27;90965.28;4981826;28;20049;-78
2023/01/16 05:54:40;;;;;;;3.65;1.70;;;;;;;-2.29;96.43;90969.66;4988866;28;20029;-78
2023/01/16 05:57:05;;;;;;;2.45;1.52;;;;;;;-2.28;96.00;90978.13;4992585;28;20042;-77
2023/01/16 05:59:31;;;;;;;2.97;1.77;;;;;;;-2.29;95.77;90966.34;4993737;28;20046;-78
2023/01/16 06:01:57;;;;;;;3.75;1.85;;;;;;;-2.32;97.10;90968.38;4993526;28;20525;-77
2023/01/16 06:04:23;;;;;;;3.60;1.75;;;;;;;-2.34;97.88;90965.28;4994946;28;20065;-79
2023/01/16 06:06:48;;;;;;;4.05;1.90;;;;;;;-2.32;98.53;90958.13;4995445;28;20057;-79
2023/01/16 06:09:14;;;;;;;3.63;1.85;;;;;;;-2.34;98.92;90955.03;4976923;28;20047;-79
2023/01/16 06:11:40;;;;;;;4.68;1.95;;;;;;;-2.33;98.93;90930.91;4989773;28;20046;-78
2023/01/16 06:14:05;;;;;;;3.38;1.70;;;;;;;-2.23;99.89;90937.13;4994888;28;20041;-78
2023/01/16 06:16:32;;;;;;;3.92;1.73;;;;;;;-2.26;99.79;90935.06;4995780;28;20027;-78
2023/01/16 06:18:58;;;;;;;3.35;1.75;;;;;;;-2.23;100.00;90939.69;4995978;28;20052;-77
2023/01/16 06:25:17;;;;;;;4.28;2.00;;;;;;;-2.23;100.00;90934.56;4995728;28;20046;-78
2023/01/16 06:28:20;;;;;;;2.65;1.65;;;;;;;-2.22;100.00;90928.44;4995695;28;20464;-78
2023/01/16 06:30:50;;;;;;;4.78;2.10;;;;;;;-2.23;100.00;90922.56;4988039;28;20393;-78
2023/01/16 06:33:16;;;;;;;6.07;2.20;;;;;;;-2.21;100.00;90917.16;4973996;28;20046;-77
2023/01/16 06:39:13;;;;;;;4.82;2.05;;;;;;;-2.22;100.00;90900.25;4994398;28;20392;-77
2023/01/16 06:41:38;;;;;;;5.43;2.22;;;;;;;-2.25;100.00;90890.47;4995068;28;20030;-78
2023/01/16 06:44:41;;;;;;;3.67;2.05;;;;;;;-2.27;100.00;90889.94;4995141;28;20377;-78
2023/01/16 06:49:43;;;;;;;3.30;2.00;;;;;;;-2.32;100.00;90880.44;4976865;28;20051;-77
2023/01/16 06:52:14;;;;;;;3.47;1.80;;;;;;;-2.35;100.00;90871.44;4992248;28;20077;-78
2023/01/16 06:54:40;;;;;;;3.35;1.90;;;;;;;-2.39;100.00;90872.94;4994941;28;20050;-77
2023/01/16 06:57:06;;;;;;;4.20;1.90;;;;;;;-2.35;100.00;90875.81;4995200;28;20416;-77
2023/01/16 06:59:32;;;;;;;3.15;1.50;;;;;;;-2.32;100.00;90865.03;4994809;28;20038;-77
2023/01/16 07:01:58;;;;;;;3.88;1.70;;;;;;;-2.28;100.00;90853.28;4995047;28;20042;-77
2023/01/16 07:04:23;;;;;;;2.72;1.90;;;;;;;-2.25;100.00;90852.00;4995095;28;20046;-77
2023/01/16 07:07:08;;;;;;;2.78;1.40;;;;;;;-2.21;100.00;90850.50;4994674;28;20053;-77
2023/01/16 07:09:34;;;;;;;1.73;1.27;;;;;;;-2.16;98.05;90847.97;4977144;28;20046;-77
2023/01/16 07:11:59;;;;;;;4.20;1.63;;;;;;;-2.14;96.68;90851.84;4994595;28;20042;-77
2023/01/16 07:23:33;;;;;;;1.98;1.30;;;;;;;-1.89;92.65;90838.34;4994660;28;20045;-77
2023/01/16 07:26:01;;;;;;;1.55;1.20;;;;;;;-1.42;93.04;90833.34;4994541;28;20039;-77
2023/01/16 07:28:28;;;;;;;4.82;1.50;;;;;;;-0.09;91.53;90821.25;4994326;28;20066;-77
2023/01/16 07:31:13;;;;;;;3.10;1.60;;;;;;;1.51;86.83;90823.69;4993152;28;20062;-77
2023/01/16 07:33:38;;;;;;;2.55;1.38;;;;;;;2.93;78.64;90815.44;4994372;28;20481;-77
2023/01/16 07:36:04;;;;;;;3.13;1.42;;;;;;;4.08;71.86;90816.72;4995014;28;20081;-78
2023/01/16 07:38:30;;;;;;;2.78;1.50;;;;;;;4.91;66.14;90807.06;4993658;28;20088;-78
2023/01/16 07:40:56;;;;;;;2.78;1.58;;;;;;;5.61;62.85;90818.72;4995268;28;20038;-78
2023/01/16 07:43:21;;;;;;;2.05;1.30;;;;;;;6.71;61.02;90823.50;4995403;28;20444;-78
2023/01/16 07:45:52;;;;;;;2.70;1.40;;;;;;;7.47;55.11;90825.75;4994866;28;20030;-78
2023/01/16 07:48:22;;;;;;;2.45;1.40;;;;;;;8.29;51.85;90823.16;4995807;28;20092;-78
2023/01/16 07:50:56;;;;;;;2.63;1.50;;;;;;;8.97;47.35;90825.78;4977997;28;20543;-78
2023/01/16 07:53:26;;;;;;;2.88;1.60;;;;;;;10.80;41.95;90824.16;4995491;28;20034;-78
2023/01/16 07:55:57;;;;;;;2.22;1.40;;;;;;;10.27;41.07;90820.56;4984390;28;20030;-79
2023/01/16 07:58:23;;;;;;;4.85;2.13;;;;;;;10.60;40.57;90807.47;4976889;28;20524;-78
2023/01/16 08:00:52;;;;;;;4.03;2.00;;;;;;;9.75;41.52;90799.13;4976820;28;20026;-79
2023/01/16 08:03:18;;;;;;;9.65;3.85;;;;;;;9.68;41.82;90811.94;4975090;28;20043;-79
2023/01/16 08:05:44;;;;;;;7.57;4.45;;;;;;;10.16;41.07;90810.56;4977915;28;20039;-78
2023/01/16 08:08:10;;;;;;;5.28;2.60;;;;;;;10.86;39.37;90794.06;4996116;28;20746;-79
2023/01/16 08:10:36;;;;;;;5.85;3.13;;;;;;;11.84;38.69;90804.34;4996286;28;20077;-79
2023/01/16 08:13:02;;;;;;;9.10;3.33;;;;;;;11.60;38.12;90801.78;4996178;28;20030;-79
2023/01/16 08:15:28;;;;;;;5.38;3.28;;;;;;;11.39;38.74;90801.94;4995959;28;20046;-79
2023/01/16 08:17:53;;;;;;;6.07;3.30;;;;;;;11.03;40.26;90793.06;4989198;28;20058;-79
2023/01/16 08:20:20;;;;;;;3.80;2.20;;;;;;;11.21;38.69;90788.34;4974935;28;20046;-79
2023/01/16 08:22:47;;;;;;;4.47;2.70;;;;;;;11.12;38.67;90785.84;4976047;28;20027;-78
2023/01/16 08:25:14;;;;;;;9.88;4.05;;;;;;;13.40;37.99;90788.53;4976240;28;20038;-79
2023/01/16 08:27:40;;;;;;;9.38;4.88;;;;;;;12.70;39.19;90784.75;4975997;28;20027;-80
2023/01/16 08:30:07;;;;;;;6.43;3.97;;;;;;;11.13;40.95;90789.25;4976606;28;20035;-79
2023/01/16 08:32:33;;;;;;;6.38;4.03;;;;;;;10.56;41.99;90780.44;4976641;28;20043;-79
2023/01/16 08:34:58;;;;;;;12.52;6.63;;;;;;;9.83;46.11;90781.81;4976361;28;20030;-79
2023/01/16 08:37:24;;;;;;;7.40;4.88;;;;;;;8.93;47.89;90780.53;4977165;28;20052;-79
2023/01/16 08:39:49;;;;;;;7.35;4.70;;;;;;;8.51;48.86;90778.63;4974728;28;20039;-78
2023/01/16 08:53:13;;;;;;;7.70;4.28;;;;;;;5.99;55.15;90761.22;4975855;28;20038;-78
2023/01/16 08:55:39;;;;;;;4.97;2.83;;;;;;;5.91;54.69;90761.91;4975575;28;20080;-78
2023/01/16 08:58:06;;;;;;;6.03;3.08;;;;;;;5.47;56.04;90758.34;4980324;28;20034;-78
2023/01/16 09:00:31;;;;;;;5.85;3.20;;;;;;;5.45;57.02;90763.06;4979334;28;20038;-78
2023/01/16 09:03:01;;;;;;;6.82;3.35;;;;;;;5.11;57.41;90753.97;4979347;28;20035;-78
2023/01/16 09:05:45;;;;;;;8.15;4.43;;;;;;;5.04;59.92;90753.59;4978918;28;20043;-78
2023/01/16 09:08:10;;;;;;;11.65;6.43;;;;;;;4.93;64.37;90754.88;4979520;28;20031;-78
2023/01/16 09:10:36;;;;;;;10.88;6.20;;;;;;;4.38;66.38;90755.78;4977989;28;20053;-77
2023/01/16 09:15:49;;;;;;;5.32;2.80;;;;;;;3.96;62.67;90748.06;4979430;28;20046;-78
2023/01/16 09:18:14;;;;;;;5.45;2.97;;;;;;;3.83;63.22;90746.22;4979215;28;20035;-77
2023/01/16 09:20:40;;;;;;;5.88;3.10;;;;;;;3.67;64.57;90732.78;4977976;28;20050;-78
2023/01/16 09:23:06;;;;;;;6.50;3.10;;;;;;;3.68;64.93;90720.63;4976662;28;20042;-78
2023/01/16 09:25:32;;;;;;;4.50;2.25;;;;;;;3.63;64.04;90718.88;4977571;28;20162;-78
2023/01/16 09:27:59;;;;;;;6.53;2.33;;;;;;;3.65;63.85;90716.03;4987266;28;20035;-78
2023/01/16 09:30:25;;;;;;;4.63;2.58;;;;;;;3.77;63.96;90713.72;4997297;28;20066;-78
2023/01/16 09:32:51;;;;;;;4.05;2.10;;;;;;;3.72;65.01;90711.22;4997221;28;20065;-78
2023/01/16 09:35:17;;;;;;;5.68;2.95;;;;;;;3.67;65.88;90711.31;4997487;28;20580;-78
2023/01/16 09:37:44;;;;;;;4.60;2.30;;;;;;;3.52;65.27;90705.34;4995873;28;20041;-77
2023/01/16 09:40:15;;;;;;;4.88;2.50;;;;;;;3.43;66.77;90708.91;4997361;28;20073;-78
2023/01/16 09:45:51;;;;;;;5.18;2.50;;;;;;;3.34;68.08;90701.03;4996682;28;20038;-77
2023/01/16 09:48:28;;;;;;;5.00;2.45;;;;;;;3.38;67.34;90686.47;4996561;28;20176;-78
2023/01/16 09:51:02;;;;;;;5.65;2.72;;;;;;;3.43;67.49;90691.56;4995348;28;20046;-78
2023/01/16 09:59:46;;;;;;;8.70;3.90;;;;;;;3.04;73.55;90669.47;5002623;28;20129;-77
2023/01/16 10:02:22;;;;;;;8.15;4.50;;;;;;;2.91;73.05;90670.19;5003591;28;20039;-78
2023/01/16 10:04:50;;;;;;;6.50;3.60;;;;;;;2.56;73.81;90672.25;4999413;28;20035;-78
2023/01/16 10:07:32;;;;;;;4.97;2.53;;;;;;;2.57;71.22;90666.06;4996016;28;20041;-78
2023/01/16 10:10:06;;;;;;;6.60;3.30;;;;;;;2.64;72.67;90668.28;4995619;28;20034;-78
2023/01/16 10:12:39;;;;;;;5.35;2.92;;;;;;;2.45;71.97;90676.03;4995624;28;20125;-78
2023/01/16 10:15:38;;;;;;;7.00;2.97;;;;;;;2.41;73.85;90672.47;4995554;28;20031;-78
2023/01/16 10:18:20;;;;;;;13.45;7.43;;;;;;;2.47;73.92;90668.78;4995278;28;20558;-78
2023/01/16 10:20:58;;;;;;;11.32;5.75;;;;;;;2.58;73.40;90662.41;4995593;28;20045;-78
2023/01/16 10:24:00;;;;;;;8.93;4.93;;;;;;;2.62;72.34;90657.47;4995707;28;20042;-77
2023/01/16 10:27:20;;;;;;;9.10;4.30;;;;;;;2.57;73.14;90644.59;4995764;28;20088;-78
2023/01/16 10:29:53;;;;;;;6.60;3.03;;;;;;;2.53;73.44;90639.25;4973834;28;20042;-78
2023/01/16 10:32:41;;;;;;;5.38;2.83;;;;;;;2.55;72.99;90626.84;4992358;28;20050;-78
2023/01/16 10:35:20;;;;;;;5.78;2.70;;;;;;;2.62;72.70;90611.72;4995958;28;20034;-78
2023/01/16 10:37:46;;;;;;;5.00;2.60;;;;;;;2.68;72.35;90602.84;4994127;28;20040;-78
2023/01/16 10:40:37;;;;;;;4.15;2.13;;;;;;;2.71;73.56;90591.94;4994074;28;20037;-78
2023/01/16 10:51:37;;;;;;;28.17;11.10;;;;;;;2.88;68.71;90559.63;4994325;28;20055;-78
2023/01/16 10:54:03;;;;;;;9.27;3.80;;;;;;;2.93;68.53;90556.97;4994878;28;20123;-78
2023/01/16 10:56:29;;;;;;;3.55;1.75;;;;;;;2.98;68.37;90558.69;4994439;28;20046;-77
2023/01/16 10:58:56;;;;;;;12.20;6.55;;;;;;;3.15;76.15;90540.00;4995146;28;20385;-78
2023/01/16 11:01:24;;;;;;;8.63;4.63;;;;;;;2.87;77.09;90553.69;4995308;28;20038;-78
2023/01/16 11:03:53;;;;;;;6.65;4.15;;;;;;;2.78;75.73;90546.88;4995006;28;20030;-78
2023/01/16 11:06:24;;;;;;;9.88;4.28;;;;;;;2.61;76.78;90537.88;4995214;28;20043;-78
2023/01/16 11:09:15;;;;;;;10.40;5.60;;;;;;;2.63;78.64;90535.75;4994542;28;20090;-77
2023/01/16 11:20:20;;;;;;;8.65;4.53;;;;;;;1.84;85.59;90510.66;4996296;28;20501;-78
2023/01/16 11:22:59;;;;;;;8.38;5.50;;;;;;;1.82;86.93;90519.75;4995982;28;20030;-78
2023/01/16 11:25:27;;;;;;;8.55;4.20;;;;;;;1.74;88.48;90522.97;4994641;28;20030;-78
2023/01/16 11:27:56;;;;;;;8.00;4.13;;;;;;;1.30;87.06;90529.22;4992332;28;20045;-78
2023/01/16 11:30:32;;;;;;;6.25;3.58;;;;;;;1.22;88.50;90530.63;4993557;28;20026;-78
2023/01/16 11:32:58;;;;;;;8.82;5.18;;;;;;;0.96;87.10;90512.09;4993465;28;20112;-77
2023/01/16 11:35:33;;;;;;;9.63;5.18;;;;;;;0.81;89.00;90502.72;4993520;28;20519;-78
2023/01/16 11:38:03;;;;;;;7.47;4.38;;;;;;;0.90;90.21;90488.22;4993509;28;20079;-78
2023/01/16 11:40:35;;;;;;;9.52;5.10;;;;;;;1.03;89.35;90491.91;4993579;28;20041;-78
2023/01/16 11:46:03;;;;;;;4.30;2.38;;;;;;;1.20;89.72;90484.50;4993559;28;20046;-77
2023/01/16 11:48:48;;;;;;;5.07;2.75;;;;;;;1.25;90.27;90476.69;4993696;28;20125;-78
2023/01/16 11:51:21;;;;;;;9.43;3.60;;;;;;;1.36;89.88;90477.31;4973745;28;20117;-77
2023/01/16 11:53:48;;;;;;;9.15;4.95;;;;;;;1.42;87.89;90476.22;4973648;28;20400;-77
2023/01/16 11:56:21;;;;;;;9.15;4.88;;;;;;;1.49;86.97;90464.75;4972252;28;20129;-78
2023/01/16 11:59:18;;;;;;;10.70;5.93;;;;;;;1.50;87.64;90466.31;4973814;28;20121;-77
2023/01/16 12:02:21;;;;;;;10.82;4.53;;;;;;;1.51;86.56;90462.66;4973962;28;20046;-78
2023/01/16 12:08:07;;;;;;;7.65;3.60;;;;;;;1.53;86.90;90470.91;4973869;28;20049;-78
2023/01/16 12:11:10;;;;;;;6.85;3.30;;;;;;;1.52;86.14;90464.22;4989356;28;20065;-79
2023/01/16 12:20:19;;;;;;;5.70;3.00;;;;;;;1.42;100.00;90445.28;4973677;28;20494;-78
2023/01/16 12:23:00;;;;;;;9.65;4.68;;;;;;;1.44;100.00;90443.19;4972383;28;20038;-78
2023/01/16 12:25:43;;;;;;;7.88;3.80;;;;;;;1.43;100.00;90436.47;4973826;28;20038;-78
2023/01/16 12:28:31;;;;;;;5.45;2.80;;;;;;;1.35;100.00;90437.13;4989388;28;20044;-77
2023/01/16 12:31:35;;;;;;;6.70;2.72;;;;;;;1.28;100.00;90423.03;4973682;28;20041;-78
2023/01/16 12:34:26;;;;;;;6.80;3.25;;;;;;;1.18;100.00;90431.69;4971813;28;20170;-77
2023/01/16 12:37:03;;;;;;;6.25;2.97;;;;;;;1.17;100.00;90422.41;4974144;28;20030;-78
2023/01/16 12:39:50;;;;;;;5.63;3.08;;;;;;;1.16;100.00;90410.59;4973844;28;20042;-77
2023/01/16 12:46:16;;;;;;;6.18;2.45;;;;;;;1.27;100.00;90406.06;4973876;28;20382;-77
2023/01/16 12:49:32;;;;;;;9.32;4.80;;;;;;;1.19;100.00;90412.59;4973918;28;20035;-78
2023/01/16 12:52:20;;;;;;;7.72;4.05;;;;;;;1.00;100.00;90410.78;4973556;28;20505;-77
2023/01/16 12:58:22;;;;;;;8.68;4.90;;;;;;;0.27;100.00;90400.84;4993500;28;20043;-77
2023/01/16 13:01:06;;;;;;;9.82;5.55;;;;;;;0.22;100.00;90399.09;4993424;28;20030;-77
2023/01/16 13:03:39;;;;;;;7.45;4.35;;;;;;;0.25;100.00;90390.06;4993511;28;20038;-78
2023/01/16 13:06:10;;;;;;;7.57;3.55;;;;;;;0.37;100.00;90385.31;4992295;28;20047;-78
2023/01/16 13:08:40;;;;;;;6.65;4.07;;;;;;;0.36;100.00;90381.19;4992013;28;20045;-77
2023/01/16 13:14:10;;;;;;;12.73;5.97;;;;;;;0.08;100.00;90387.94;4991923;28;20096;-78
2023/01/16 13:17:15;;;;;;;26.20;5.93;;;;;;;-0.10;100.00;90381.69;4991805;28;20069;-78
2023/01/16 13:19:42;;;;;;;9.80;4.82;;;;;;;-0.13;100.00;90382.25;4992670;28;20043;-78
2023/01/16 13:22:24;;;;;;;10.45;5.18;;;;;;;-0.15;100.00;90374.03;4992072;28;20038;-78